Wharton, Ohio
Current Conditions -  °F | °C
As of 8:53 AM on Thursday 29 Jan 2015 (Local Time) from KFDY Reporting Station
Overcast Overcast  
Wind Chill: 27°   Ceiling: 5500
Heat Index: 37°   Visibility: 10mi
Dew Point: 29°   Wind: 20mph
Humidity: 73%   Direction: 180°S
Pressure: 29.78"   Gusts: 28mph
Location:  40.86°N, 83.46°W
Report Text: KFDY 291353Z AUTO 18017G24KT 10SM BKN055 OVC070 03/M02 A2978 RMK AO2 PK WND 15027/1315 SLP090 T00281017
Loading
Personal Weather Stations






























Interactive Weather Map New forecast layout! Learn more

10-Day Weather Forecast

Advertisements
Track Severe Weather on mobile